Time;durP1;ratioP1;P1;durP2;ratioP2;P2;SDS_P1;SDS_P2;PMS_P1;PMS_P2;Temp;Humidity;BMP_temperature;BMP_pressure;BME280_temperature;BME280_humidity;BME280_pressure;Samples;Min_cycle;Max_cycle;Signal;HPM_P1;HPM_P2
2021/04/30 00:00:51;;;;;;;;;;;13.20;91.50;;;;;;5034185;28;19925;-62
2021/04/30 00:03:19;;;;;;;;;;;13.10;91.60;;;;;;5033945;28;19960;-63
2021/04/30 00:05:45;;;;;;;;;;;13.20;91.20;;;;;;5013787;28;19925;-62
2021/04/30 00:08:12;;;;;;;;;;;13.20;90.90;;;;;;5004009;28;19934;-63
2021/04/30 00:10:40;;;;;;;;;;;13.20;91.10;;;;;;5012592;28;19940;-62
2021/04/30 00:13:06;;;;;;;;;;;13.20;90.50;;;;;;5020588;28;19987;-61
2021/04/30 00:15:32;;;;;;;;;;;13.10;90.30;;;;;;5027187;28;19936;-61
2021/04/30 00:18:03;;;;;;;;;;;13.10;90.30;;;;;;5013981;28;19956;-62
2021/04/30 00:20:31;;;;;;;;;;;13.10;90.30;;;;;;5031143;28;19999;-63
2021/04/30 00:22:57;;;;;;;;;;;13.10;90.50;;;;;;5020202;28;19933;-61
2021/04/30 00:25:23;;;;;;;;;;;13.10;90.30;;;;;;5029847;28;19933;-61
2021/04/30 00:27:50;;;;;;;;;;;13.10;90.20;;;;;;5033256;28;19925;-60
2021/04/30 00:30:16;;;;;;;;;;;13.00;90.30;;;;;;5033451;28;19932;-61
2021/04/30 00:32:43;;;;;;;;;;;13.00;90.30;;;;;;5032602;28;20006;-63
2021/04/30 00:35:09;;;;;;;;;;;13.00;90.10;;;;;;5033368;28;19936;-62
2021/04/30 00:37:38;;;;;;;;;;;13.00;90.20;;;;;;5032472;28;20002;-62
2021/04/30 00:40:05;;;;;;;;;;;13.00;90.30;;;;;;5033136;28;19996;-61
2021/04/30 00:42:32;;;;;;;;;;;12.90;90.40;;;;;;5025961;28;19933;-61
2021/04/30 00:44:59;;;;;;;;;;;12.90;90.30;;;;;;5033261;28;19925;-61
2021/04/30 00:47:27;;;;;;;;;;;12.90;90.70;;;;;;5032436;28;20314;-61
2021/04/30 00:49:53;;;;;;;;;;;12.90;90.90;;;;;;5033083;28;19925;-61
2021/04/30 00:52:19;;;;;;;;;;;12.90;91.00;;;;;;5033121;28;19937;-61
2021/04/30 00:54:47;;;;;;;;;;;12.90;91.10;;;;;;5032803;28;19936;-62
2021/04/30 00:57:14;;;;;;;;;;;12.90;90.60;;;;;;5032944;28;19925;-61
2021/04/30 00:59:40;;;;;;;;;;;12.90;90.70;;;;;;5032478;28;19925;-61
2021/04/30 01:02:11;;;;;;;;;;;12.90;90.90;;;;;;5033091;28;19925;-61
2021/04/30 01:04:37;;;;;;;;;;;12.90;90.60;;;;;;5032524;28;19929;-61
2021/04/30 01:07:04;;;;;;;;;;;12.90;90.60;;;;;;5023510;28;19936;-62
2021/04/30 01:09:30;;;;;;;;;;;12.90;90.60;;;;;;5032482;28;20326;-61
2021/04/30 01:11:57;;;;;;;;;;;12.90;90.70;;;;;;5032753;28;19930;-61
2021/04/30 01:14:24;;;;;;;;;;;12.80;91.00;;;;;;5032708;28;19925;-61
2021/04/30 01:16:51;;;;;;;;;;;12.90;90.90;;;;;;5032682;28;20803;-62
2021/04/30 01:19:20;;;;;;;;;;;12.90;91.00;;;;;;5032751;28;19944;-62
2021/04/30 01:21:51;;;;;;;;;;;12.90;90.80;;;;;;5032325;28;19986;-62
2021/04/30 01:24:17;;;;;;;;;;;12.80;90.90;;;;;;5032764;28;20366;-62
2021/04/30 01:26:44;;;;;;;;;;;12.80;90.90;;;;;;5032274;28;19925;-62
2021/04/30 01:29:10;;;;;;;;;;;12.80;90.90;;;;;;5032352;28;19925;-62
2021/04/30 01:31:37;;;;;;;;;;;12.80;90.90;;;;;;5032366;28;19925;-62
2021/04/30 01:34:03;;;;;;;;;;;12.80;91.10;;;;;;5032797;28;20031;-61
2021/04/30 01:36:30;;;;;;;;;;;12.70;91.10;;;;;;5032102;28;19925;-61
2021/04/30 01:38:57;;;;;;;;;;;12.70;90.90;;;;;;5032690;28;19925;-61
2021/04/30 01:41:24;;;;;;;;;;;12.70;91.20;;;;;;5032704;28;19929;-61
2021/04/30 01:43:50;;;;;;;;;;;12.70;91.40;;;;;;5025208;28;19925;-61
2021/04/30 01:46:16;;;;;;;;;;;12.70;91.50;;;;;;5032881;28;19925;-61
2021/04/30 01:48:43;;;;;;;;;;;12.70;91.30;;;;;;5031960;28;19925;-62
2021/04/30 01:51:09;;;;;;;;;;;12.70;91.20;;;;;;5032569;28;19929;-61
2021/04/30 01:53:36;;;;;;;;;;;12.70;91.20;;;;;;5032024;28;19925;-61
2021/04/30 01:56:04;;;;;;;;;;;12.60;91.50;;;;;;5032502;28;19933;-61
2021/04/30 01:58:31;;;;;;;;;;;12.60;91.60;;;;;;5033913;28;19925;-61
2021/04/30 02:00:57;;;;;;;;;;;12.60;91.30;;;;;;5036311;28;19925;-62
2021/04/30 02:03:24;;;;;;;;;;;12.60;91.30;;;;;;5036340;28;19925;-61
2021/04/30 02:05:50;;;;;;;;;;;12.60;91.20;;;;;;5025796;28;19929;-61
2021/04/30 02:08:18;;;;;;;;;;;12.60;91.40;;;;;;5032773;28;20128;-61
2021/04/30 02:10:45;;;;;;;;;;;12.60;91.50;;;;;;5035400;28;19925;-62
2021/04/30 02:13:13;;;;;;;;;;;12.60;91.50;;;;;;5036171;28;19987;-60
2021/04/30 02:15:41;;;;;;;;;;;12.60;91.70;;;;;;5035701;28;19933;-62
2021/04/30 02:18:07;;;;;;;;;;;12.60;91.90;;;;;;5035929;28;19925;-61
2021/04/30 02:20:33;;;;;;;;;;;12.60;91.80;;;;;;5029282;28;19925;-62
2021/04/30 02:23:00;;;;;;;;;;;12.60;91.90;;;;;;5034671;28;19937;-61
2021/04/30 02:25:26;;;;;;;;;;;12.50;92.00;;;;;;5036010;28;19925;-62
2021/04/30 02:27:54;;;;;;;;;;;12.60;92.00;;;;;;5034989;28;20348;-62
2021/04/30 02:30:21;;;;;;;;;;;12.50;92.20;;;;;;5035349;28;19951;-61
2021/04/30 02:32:48;;;;;;;;;;;12.50;92.30;;;;;;5035650;28;19929;-61
2021/04/30 02:35:16;;;;;;;;;;;12.50;92.30;;;;;;5035233;28;20371;-62
2021/04/30 02:37:43;;;;;;;;;;;12.50;92.60;;;;;;5035357;28;20032;-62
2021/04/30 02:40:10;;;;;;;;;;;12.50;92.70;;;;;;5027624;28;19925;-62
2021/04/30 02:42:37;;;;;;;;;;;12.50;92.70;;;;;;5034881;28;19936;-61
2021/04/30 02:45:03;;;;;;;;;;;12.50;92.60;;;;;;5035550;28;19925;-61
2021/04/30 02:47:32;;;;;;;;;;;12.50;92.70;;;;;;5035445;28;19929;-61
2021/04/30 02:49:59;;;;;;;;;;;12.50;92.70;;;;;;5035109;28;19955;-62
2021/04/30 02:52:26;;;;;;;;;;;12.50;93.00;;;;;;5035393;28;19925;-61
2021/04/30 02:54:52;;;;;;;;;;;12.40;93.10;;;;;;5035102;28;19933;-61
2021/04/30 02:57:18;;;;;;;;;;;12.30;93.40;;;;;;5035160;28;20376;-60
2021/04/30 02:59:45;;;;;;;;;;;12.20;93.60;;;;;;5034915;28;19925;-61
2021/04/30 03:02:13;;;;;;;;;;;12.20;94.00;;;;;;5035346;28;20387;-61
2021/04/30 03:04:40;;;;;;;;;;;12.20;94.30;;;;;;5034791;28;20012;-61
2021/04/30 03:07:06;;;;;;;;;;;12.20;94.30;;;;;;5030400;28;19925;-61
2021/04/30 03:09:33;;;;;;;;;;;12.20;94.30;;;;;;5033745;28;19948;-61
2021/04/30 03:11:59;;;;;;;;;;;12.20;94.50;;;;;;5032292;28;19926;-62
2021/04/30 03:14:25;;;;;;;;;;;12.20;94.70;;;;;;5031866;28;19933;-62
2021/04/30 03:16:52;;;;;;;;;;;12.20;95.10;;;;;;5031556;28;19925;-62
2021/04/30 03:19:18;;;;;;;;;;;12.10;95.30;;;;;;5033984;28;19940;-62
2021/04/30 03:21:45;;;;;;;;;;;12.20;95.70;;;;;;5033322;28;20292;-61
2021/04/30 03:24:12;;;;;;;;;;;12.10;95.90;;;;;;5034668;28;19933;-61
2021/04/30 03:26:38;;;;;;;;;;;12.10;96.20;;;;;;5034575;28;19991;-60
2021/04/30 03:29:05;;;;;;;;;;;12.10;96.20;;;;;;5035148;28;19925;-61
2021/04/30 03:31:31;;;;;;;;;;;12.10;96.50;;;;;;5034010;28;20351;-61
2021/04/30 03:33:58;;;;;;;;;;;12.00;96.80;;;;;;5032710;28;19933;-61
2021/04/30 03:36:25;;;;;;;;;;;12.00;96.90;;;;;;5032946;28;20286;-61
2021/04/30 03:38:52;;;;;;;;;;;12.00;97.20;;;;;;5032421;28;19983;-62
2021/04/30 03:41:18;;;;;;;;;;;12.00;97.40;;;;;;5033347;28;20275;-62
2021/04/30 03:43:45;;;;;;;;;;;11.90;97.40;;;;;;5033014;28;19925;-61
2021/04/30 03:46:12;;;;;;;;;;;12.00;97.50;;;;;;5034362;28;19925;-61
2021/04/30 03:48:38;;;;;;;;;;;12.00;97.50;;;;;;5034298;28;20274;-63
2021/04/30 03:51:05;;;;;;;;;;;11.90;97.60;;;;;;5034391;28;19925;-62
2021/04/30 03:53:31;;;;;;;;;;;11.90;97.70;;;;;;5034410;28;19924;-62
2021/04/30 03:55:59;;;;;;;;;;;11.90;97.60;;;;;;5034213;28;19933;-61
2021/04/30 03:58:25;;;;;;;;;;;11.90;97.70;;;;;;5034092;28;19940;-61
2021/04/30 04:00:51;;;;;;;;;;;11.90;97.50;;;;;;5033887;28;19936;-61
2021/04/30 04:03:18;;;;;;;;;;;11.90;97.60;;;;;;5034470;28;19929;-61
2021/04/30 04:05:44;;;;;;;;;;;11.90;97.40;;;;;;5034018;28;20344;-61
2021/04/30 04:08:10;;;;;;;;;;;11.90;97.50;;;;;;5034339;28;19925;-62
2021/04/30 04:10:37;;;;;;;;;;;11.90;97.60;;;;;;5033977;28;19924;-61
2021/04/30 04:13:14;;;;;;;;;;;11.90;97.60;;;;;;5033740;28;19925;-62
2021/04/30 04:15:41;;;;;;;;;;;11.90;97.60;;;;;;5033786;28;19925;-60
2021/04/30 04:18:07;;;;;;;;;;;11.80;97.50;;;;;;5034137;28;19936;-62
2021/04/30 04:20:33;;;;;;;;;;;11.80;97.70;;;;;;5033707;28;19932;-61
2021/04/30 04:23:00;;;;;;;;;;;11.90;97.70;;;;;;5033601;28;20368;-62
2021/04/30 04:25:26;;;;;;;;;;;11.90;97.70;;;;;;5033847;28;19926;-61
2021/04/30 04:27:52;;;;;;;;;;;11.80;97.60;;;;;;5033504;28;19956;-61
2021/04/30 04:30:20;;;;;;;;;;;11.90;97.80;;;;;;5033649;28;19925;-62
2021/04/30 04:32:47;;;;;;;;;;;11.90;97.80;;;;;;5033630;28;19925;-62
2021/04/30 04:35:13;;;;;;;;;;;11.90;98.00;;;;;;5033853;28;20020;-61
2021/04/30 04:37:40;;;;;;;;;;;11.90;97.90;;;;;;5033889;28;19987;-61
2021/04/30 04:40:07;;;;;;;;;;;11.90;98.00;;;;;;5033214;28;20638;-61
2021/04/30 04:42:33;;;;;;;;;;;11.90;98.00;;;;;;5033763;28;19925;-60
2021/04/30 04:45:00;;;;;;;;;;;11.90;98.10;;;;;;5033346;28;20279;-62
2021/04/30 04:47:27;;;;;;;;;;;11.90;98.20;;;;;;5033569;28;19934;-62
2021/04/30 04:49:53;;;;;;;;;;;11.90;98.20;;;;;;5033155;28;19929;-62
2021/04/30 04:52:19;;;;;;;;;;;11.90;98.20;;;;;;5033591;28;19994;-62
2021/04/30 04:54:46;;;;;;;;;;;11.90;98.20;;;;;;5033076;28;19925;-61
2021/04/30 04:57:12;;;;;;;;;;;11.90;98.20;;;;;;5033338;28;19925;-62
2021/04/30 04:59:38;;;;;;;;;;;12.00;98.10;;;;;;5033447;28;19925;-60
2021/04/30 05:02:05;;;;;;;;;;;12.00;98.00;;;;;;5032995;28;19925;-61
2021/04/30 05:04:32;;;;;;;;;;;11.90;98.00;;;;;;5033586;28;19925;-61
2021/04/30 05:06:58;;;;;;;;;;;12.00;98.00;;;;;;5032780;28;19940;-61
2021/04/30 05:09:27;;;;;;;;;;;12.00;98.00;;;;;;5033144;28;19925;-61
2021/04/30 05:11:53;;;;;;;;;;;11.90;98.10;;;;;;5032862;28;19925;-61
2021/04/30 05:14:20;;;;;;;;;;;11.90;98.30;;;;;;5033159;28;19991;-61
2021/04/30 05:16:46;;;;;;;;;;;11.90;98.30;;;;;;5032731;28;20363;-61
2021/04/30 05:19:12;;;;;;;;;;;11.90;98.50;;;;;;5033319;28;19933;-61
2021/04/30 05:21:40;;;;;;;;;;;12.00;98.30;;;;;;5033234;28;19925;-60
2021/04/30 05:24:07;;;;;;;;;;;12.00;98.20;;;;;;5032727;28;19925;-61
2021/04/30 05:26:34;;;;;;;;;;;12.00;98.30;;;;;;5033103;28;20387;-61
2021/04/30 05:29:00;;;;;;;;;;;12.00;98.30;;;;;;5032769;28;19925;-61
2021/04/30 05:31:27;;;;;;;;;;;12.00;98.50;;;;;;5033424;28;20327;-61
2021/04/30 05:33:53;;;;;;;;;;;12.00;98.10;;;;;;5035311;28;19925;-62
2021/04/30 05:36:19;;;;;;;;;;;12.00;98.20;;;;;;5037343;28;19933;-61
2021/04/30 05:38:46;;;;;;;;;;;12.00;98.00;;;;;;5036870;28;20363;-61
2021/04/30 05:41:13;;;;;;;;;;;12.10;98.00;;;;;;5036916;28;19991;-62
2021/04/30 05:43:39;;;;;;;;;;;12.00;97.90;;;;;;5037052;28;19925;-61
2021/04/30 05:46:05;;;;;;;;;;;12.10;97.90;;;;;;5036696;28;19925;-61
2021/04/30 05:48:32;;;;;;;;;;;12.10;97.90;;;;;;5036995;28;19979;-61
2021/04/30 05:50:58;;;;;;;;;;;12.10;97.90;;;;;;5036419;28;19928;-60
2021/04/30 05:53:24;;;;;;;;;;;12.00;97.90;;;;;;5036709;28;19932;-62
2021/04/30 05:55:51;;;;;;;;;;;12.10;97.90;;;;;;5036289;28;19952;-62
2021/04/30 05:58:18;;;;;;;;;;;12.10;97.90;;;;;;5036562;28;19925;-62
2021/04/30 06:00:44;;;;;;;;;;;12.10;97.90;;;;;;5036727;28;19952;-61
2021/04/30 06:03:10;;;;;;;;;;;12.00;97.50;;;;;;5036375;28;20394;-62
2021/04/30 06:05:40;;;;;;;;;;;12.10;97.50;;;;;;5036633;28;19937;-62
2021/04/30 06:08:10;;;;;;;;;;;12.10;97.40;;;;;;5035912;28;19925;-62
2021/04/30 06:10:36;;;;;;;;;;;12.10;97.40;;;;;;5036480;28;19925;-61
2021/04/30 06:13:04;;;;;;;;;;;12.10;97.10;;;;;;5036184;28;19983;-62
2021/04/30 06:15:30;;;;;;;;;;;12.10;97.30;;;;;;5036429;28;20350;-62
2021/04/30 06:17:56;;;;;;;;;;;12.10;97.70;;;;;;5035748;28;19940;-60
2021/04/30 06:20:23;;;;;;;;;;;12.10;97.30;;;;;;5036262;28;19936;-62
2021/04/30 06:22:49;;;;;;;;;;;12.10;97.00;;;;;;5036058;28;19925;-61
2021/04/30 06:25:15;;;;;;;;;;;12.10;97.10;;;;;;5036368;28;19944;-61
2021/04/30 06:27:42;;;;;;;;;;;12.10;97.00;;;;;;5036080;28;19932;-62
2021/04/30 06:30:10;;;;;;;;;;;12.00;97.00;;;;;;5035559;28;20202;-62
2021/04/30 06:32:38;;;;;;;;;;;12.10;97.00;;;;;;5036083;28;19925;-61
2021/04/30 06:35:05;;;;;;;;;;;12.10;96.80;;;;;;5035744;28;19961;-61
2021/04/30 06:37:31;;;;;;;;;;;12.10;96.20;;;;;;5035857;28;19925;-61
2021/04/30 06:39:58;;;;;;;;;;;12.10;95.60;;;;;;5035383;28;19952;-61
2021/04/30 06:42:29;;;;;;;;;;;12.10;95.20;;;;;;5035883;28;20056;-62
2021/04/30 06:44:55;;;;;;;;;;;12.10;95.20;;;;;;5035162;28;19967;-59
2021/04/30 06:47:22;;;;;;;;;;;12.10;95.60;;;;;;5035674;28;19925;-60
2021/04/30 06:49:49;;;;;;;;;;;12.10;95.10;;;;;;5035905;28;19925;-62
2021/04/30 06:52:15;;;;;;;;;;;12.10;95.20;;;;;;5035150;28;20275;-61
2021/04/30 06:54:42;;;;;;;;;;;12.10;95.00;;;;;;5035560;28;19929;-61
2021/04/30 06:57:08;;;;;;;;;;;12.10;95.00;;;;;;5034930;28;19933;-61
2021/04/30 06:59:35;;;;;;;;;;;12.10;95.10;;;;;;5035586;28;19925;-61
2021/04/30 07:02:02;;;;;;;;;;;12.10;94.70;;;;;;5035164;28;19933;-62
2021/04/30 07:04:29;;;;;;;;;;;12.10;95.00;;;;;;5035360;28;19925;-61
2021/04/30 07:06:55;;;;;;;;;;;12.10;95.10;;;;;;5035106;28;19925;-61
2021/04/30 07:09:21;;;;;;;;;;;12.10;94.90;;;;;;5035404;28;20236;-61
2021/04/30 07:11:48;;;;;;;;;;;12.20;94.60;;;;;;5035228;28;19928;-61
2021/04/30 07:14:14;;;;;;;;;;;12.20;94.00;;;;;;5035052;28;19925;-62
2021/04/30 07:16:40;;;;;;;;;;;12.20;94.20;;;;;;5035149;28;20271;-60
2021/04/30 07:19:07;;;;;;;;;;;12.10;94.20;;;;;;5034803;28;19962;-61
2021/04/30 07:21:34;;;;;;;;;;;12.10;94.00;;;;;;5035096;28;19925;-61
2021/04/30 07:24:00;;;;;;;;;;;12.10;94.10;;;;;;5034705;28;19935;-61
2021/04/30 07:26:27;;;;;;;;;;;12.10;94.10;;;;;;5034894;28;19964;-61
2021/04/30 07:28:53;;;;;;;;;;;12.10;93.80;;;;;;5035094;28;19929;-61
2021/04/30 07:31:19;;;;;;;;;;;12.10;93.90;;;;;;5034723;28;20732;-61
2021/04/30 07:33:46;;;;;;;;;;;12.20;93.90;;;;;;5034885;28;19925;-60
2021/04/30 07:36:13;;;;;;;;;;;12.20;93.80;;;;;;5034461;28;19936;-60
2021/04/30 07:38:40;;;;;;;;;;;12.20;93.70;;;;;;5034905;28;20279;-61
2021/04/30 07:41:07;;;;;;;;;;;12.20;93.40;;;;;;5034506;28;19925;-61
2021/04/30 07:43:33;;;;;;;;;;;12.20;93.10;;;;;;5034737;28;19925;-61
2021/04/30 07:46:00;;;;;;;;;;;12.20;93.30;;;;;;5034217;28;19936;-61
2021/04/30 07:48:26;;;;;;;;;;;12.20;93.40;;;;;;5034815;28;20183;-61
2021/04/30 07:50:53;;;;;;;;;;;12.20;93.40;;;;;;5034395;28;19936;-62
2021/04/30 07:53:19;;;;;;;;;;;12.20;93.50;;;;;;5034259;28;19925;-61
2021/04/30 07:55:46;;;;;;;;;;;12.30;93.30;;;;;;5033818;28;19925;-61
2021/04/30 07:58:13;;;;;;;;;;;12.30;93.30;;;;;;5033744;28;20214;-62
2021/04/30 08:00:39;;;;;;;;;;;12.30;93.40;;;;;;5034434;28;19931;-62
2021/04/30 08:03:06;;;;;;;;;;;12.30;93.30;;;;;;5034120;28;20151;-62
2021/04/30 08:05:33;;;;;;;;;;;12.40;93.30;;;;;;5034271;28;19925;-61
2021/04/30 08:08:04;;;;;;;;;;;12.40;93.40;;;;;;5033936;28;19964;-61
2021/04/30 08:10:31;;;;;;;;;;;12.40;93.30;;;;;;5034034;28;19934;-61
2021/04/30 08:12:59;;;;;;;;;;;12.40;93.40;;;;;;5033806;28;19929;-60
2021/04/30 08:15:27;;;;;;;;;;;12.40;93.50;;;;;;5034071;28;19998;-62
2021/04/30 08:17:54;;;;;;;;;;;12.40;93.60;;;;;;5034181;28;19935;-62
2021/04/30 08:20:21;;;;;;;;;;;12.30;93.80;;;;;;5033718;28;19925;-62
2021/04/30 08:22:49;;;;;;;;;;;12.30;93.40;;;;;;5033823;28;19983;-62
2021/04/30 08:25:17;;;;;;;;;;;12.30;93.40;;;;;;5033547;28;19932;-61
2021/04/30 08:27:44;;;;;;;;;;;12.30;92.90;;;;;;5033523;28;19931;-62
2021/04/30 08:30:14;;;;;;;;;;;12.20;93.00;;;;;;5033598;28;20032;-61
2021/04/30 08:32:42;;;;;;;;;;;12.20;93.10;;;;;;5033607;28;19960;-62
2021/04/30 08:35:09;;;;;;;;;;;12.10;93.20;;;;;;5033225;28;20015;-62
2021/04/30 08:37:36;;;;;;;;;;;12.10;92.90;;;;;;5033720;28;19932;-62
2021/04/30 08:40:04;;;;;;;;;;;12.20;92.50;;;;;;5033266;28;19936;-62
2021/04/30 08:42:30;;;;;;;;;;;12.20;92.40;;;;;;5033535;28;19932;-62
2021/04/30 08:44:57;;;;;;;;;;;12.10;92.30;;;;;;5033542;28;20395;-61
2021/04/30 08:47:25;;;;;;;;;;;12.10;92.10;;;;;;5033016;28;19936;-61
2021/04/30 08:49:54;;;;;;;;;;;12.10;91.90;;;;;;5033295;28;19983;-61
2021/04/30 08:52:22;;;;;;;;;;;12.10;92.00;;;;;;5033054;28;20352;-61
2021/04/30 08:54:52;;;;;;;;;;;12.00;92.10;;;;;;5033038;28;19925;-61
2021/04/30 08:57:23;;;;;;;;;;;12.20;92.20;;;;;;5032049;28;20023;-61
2021/04/30 08:59:56;;;;;;;;;;;12.20;92.40;;;;;;5032713;28;20363;-62
2021/04/30 09:02:26;;;;;;;;;;;12.20;92.00;;;;;;5032993;28;19925;-61
2021/04/30 09:04:55;;;;;;;;;;;12.30;92.00;;;;;;5033358;28;19929;-62
2021/04/30 09:07:27;;;;;;;;;;;12.40;92.10;;;;;;5032502;28;19983;-62
2021/04/30 09:10:04;;;;;;;;;;;12.40;92.00;;;;;;5033170;28;19925;-62
2021/04/30 09:12:31;;;;;;;;;;;12.40;91.50;;;;;;5033156;28;20666;-62
2021/04/30 09:14:59;;;;;;;;;;;12.50;91.60;;;;;;5033355;28;19936;-62
2021/04/30 09:17:28;;;;;;;;;;;12.50;91.10;;;;;;5032684;28;20248;-62
2021/04/30 09:19:59;;;;;;;;;;;12.50;91.00;;;;;;5033130;28;20351;-62
2021/04/30 09:22:28;;;;;;;;;;;12.60;91.30;;;;;;5032646;28;20012;-61
2021/04/30 09:24:57;;;;;;;;;;;12.60;91.10;;;;;;5032951;28;19960;-61
2021/04/30 09:27:38;;;;;;;;;;;12.70;91.00;;;;;;5032407;28;19925;-61
2021/04/30 09:30:20;;;;;;;;;;;12.70;90.90;;;;;;5032833;28;19999;-61
2021/04/30 09:33:05;;;;;;;;;;;12.80;90.50;;;;;;5033110;28;19936;-62
2021/04/30 09:35:33;;;;;;;;;;;12.90;90.70;;;;;;5032646;28;19983;-61
2021/04/30 09:38:01;;;;;;;;;;;13.00;90.70;;;;;;5032774;28;19925;-61
2021/04/30 09:40:31;;;;;;;;;;;13.10;90.30;;;;;;5032835;28;19929;-62
2021/04/30 09:43:02;;;;;;;;;;;13.10;89.80;;;;;;5031731;28;19968;-62
2021/04/30 09:45:28;;;;;;;;;;;13.20;89.30;;;;;;5032925;28;19925;-62
2021/04/30 09:47:58;;;;;;;;;;;13.20;88.50;;;;;;5032043;28;19941;-61
2021/04/30 09:50:26;;;;;;;;;;;13.20;88.30;;;;;;5032671;28;20417;-62
2021/04/30 09:52:53;;;;;;;;;;;13.30;87.60;;;;;;5032426;28;19933;-61
2021/04/30 09:55:19;;;;;;;;;;;13.20;87.80;;;;;;5032390;28;19948;-62
2021/04/30 09:57:48;;;;;;;;;;;13.30;87.70;;;;;;5031354;28;19925;-61
2021/04/30 10:00:15;;;;;;;;;;;13.30;86.90;;;;;;5031949;28;19960;-61
2021/04/30 10:02:44;;;;;;;;;;;13.30;87.70;;;;;;5031679;28;20038;-61
2021/04/30 10:05:11;;;;;;;;;;;13.20;87.40;;;;;;5032003;28;19990;-62
2021/04/30 10:07:39;;;;;;;;;;;13.20;88.30;;;;;;5031694;28;19929;-62
2021/04/30 10:10:07;;;;;;;;;;;13.20;87.70;;;;;;5032360;28;19933;-61
2021/04/30 10:12:34;;;;;;;;;;;13.20;87.80;;;;;;5032643;28;19932;-61
2021/04/30 10:15:00;;;;;;;;;;;13.20;87.30;;;;;;5032277;28;19936;-61
2021/04/30 10:17:27;;;;;;;;;;;13.20;87.00;;;;;;5032718;28;19925;-61
2021/04/30 10:19:54;;;;;;;;;;;13.20;87.30;;;;;;5034635;28;20268;-62
2021/04/30 10:22:21;;;;;;;;;;;13.20;86.90;;;;;;5036288;28;19975;-62
2021/04/30 10:24:50;;;;;;;;;;;13.30;85.80;;;;;;5035749;28;19940;-61
2021/04/30 10:27:17;;;;;;;;;;;13.30;85.40;;;;;;5036199;28;19994;-62
2021/04/30 10:29:46;;;;;;;;;;;13.40;85.00;;;;;;5035378;28;20166;-61
2021/04/30 10:32:14;;;;;;;;;;;13.40;85.50;;;;;;5035729;28;19933;-61
2021/04/30 10:34:44;;;;;;;;;;;13.50;85.40;;;;;;5035682;28;19929;-60
2021/04/30 10:37:12;;;;;;;;;;;13.60;85.20;;;;;;5034442;28;20428;-62
2021/04/30 10:39:38;;;;;;;;;;;13.70;84.80;;;;;;5035314;28;20296;-61
2021/04/30 10:42:09;;;;;;;;;;;13.80;85.30;;;;;;5035708;28;20421;-61
2021/04/30 10:44:40;;;;;;;;;;;13.90;83.90;;;;;;5035971;28;20122;-62
2021/04/30 10:47:24;;;;;;;;;;;14.00;82.70;;;;;;5035543;28;20678;-62
2021/04/30 10:50:05;;;;;;;;;;;13.90;84.00;;;;;;5035599;28;19936;-62
2021/04/30 10:52:31;;;;;;;;;;;13.90;83.20;;;;;;5035696;28;20360;-61
2021/04/30 10:55:01;;;;;;;;;;;13.90;83.40;;;;;;5035039;28;20364;-61
2021/04/30 10:57:28;;;;;;;;;;;13.90;83.20;;;;;;5035585;28;19925;-61
2021/04/30 10:59:55;;;;;;;;;;;13.90;82.80;;;;;;5035290;28;19925;-61
2021/04/30 11:02:26;;;;;;;;;;;14.00;82.70;;;;;;5035518;28;19929;-61
2021/04/30 11:05:09;;;;;;;;;;;14.00;83.10;;;;;;5035134;28;19924;-63
2021/04/30 11:07:36;;;;;;;;;;;14.10;83.20;;;;;;5035539;28;20298;-61
2021/04/30 11:10:27;;;;;;;;;;;14.20;83.20;;;;;;5034740;28;20360;-62
2021/04/30 11:12:55;;;;;;;;;;;14.20;83.00;;;;;;5034933;28;20348;-61
2021/04/30 11:15:21;;;;;;;;;;;14.30;82.30;;;;;;5035307;28;19933;-62
2021/04/30 11:17:48;;;;;;;;;;;14.30;82.40;;;;;;5034944;28;19936;-61
2021/04/30 11:20:17;;;;;;;;;;;14.40;82.80;;;;;;5035277;28;19925;-62
2021/04/30 11:23:03;;;;;;;;;;;14.30;82.80;;;;;;5035271;28;19968;-62
2021/04/30 11:25:30;;;;;;;;;;;14.30;83.10;;;;;;5034792;28;20267;-62
2021/04/30 11:27:58;;;;;;;;;;;14.20;83.50;;;;;;5035133;28;20348;-61
2021/04/30 11:30:25;;;;;;;;;;;14.20;83.50;;;;;;5033689;28;20275;-61
2021/04/30 11:32:52;;;;;;;;;;;14.20;83.20;;;;;;5034733;28;19925;-61
2021/04/30 11:35:19;;;;;;;;;;;14.10;83.40;;;;;;5035029;28;19925;-61
2021/04/30 11:37:48;;;;;;;;;;;14.00;84.20;;;;;;5034349;28;20358;-62
2021/04/30 11:40:18;;;;;;;;;;;14.00;84.30;;;;;;5034740;28;20315;-60
2021/04/30 11:42:44;;;;;;;;;;;14.00;84.70;;;;;;5034459;28;19925;-61
2021/04/30 11:45:12;;;;;;;;;;;14.00;85.00;;;;;;5034634;28;19932;-62
2021/04/30 11:47:39;;;;;;;;;;;14.00;85.40;;;;;;5034063;28;20106;-61
2021/04/30 11:50:06;;;;;;;;;;;14.00;85.30;;;;;;5034627;28;19983;-62
2021/04/30 11:52:35;;;;;;;;;;;14.00;85.80;;;;;;5034380;28;19932;-61
2021/04/30 11:55:01;;;;;;;;;;;14.00;85.40;;;;;;5034411;28;19925;-63
2021/04/30 11:57:29;;;;;;;;;;;13.90;85.80;;;;;;5034262;28;19925;-61
2021/04/30 11:59:56;;;;;;;;;;;13.90;85.70;;;;;;5034212;28;21204;-61
2021/04/30 12:02:26;;;;;;;;;;;13.90;85.60;;;;;;5034372;28;19925;-61
2021/04/30 12:04:54;;;;;;;;;;;13.80;85.80;;;;;;5034114;28;19936;-61
2021/04/30 12:07:21;;;;;;;;;;;13.80;86.30;;;;;;5034105;28;19924;-61
2021/04/30 12:09:47;;;;;;;;;;;13.80;86.50;;;;;;5033669;28;19929;-62
2021/04/30 12:12:15;;;;;;;;;;;13.80;86.40;;;;;;5033992;28;19999;-62
2021/04/30 12:14:55;;;;;;;;;;;13.70;86.80;;;;;;5033688;28;19930;-62
2021/04/30 12:17:23;;;;;;;;;;;13.70;87.30;;;;;;5033858;28;19974;-61
2021/04/30 12:19:54;;;;;;;;;;;13.70;87.30;;;;;;5033835;28;19925;-61
2021/04/30 12:22:20;;;;;;;;;;;13.60;86.80;;;;;;5034134;28;20271;-62
2021/04/30 12:24:46;;;;;;;;;;;13.70;87.00;;;;;;5033686;28;20374;-61
2021/04/30 12:27:23;;;;;;;;;;;13.70;86.20;;;;;;5034172;28;20397;-61
2021/04/30 12:29:50;;;;;;;;;;;13.70;86.40;;;;;;5033458;28;19925;-61
2021/04/30 12:32:22;;;;;;;;;;;13.70;86.40;;;;;;5033778;28;19929;-62
2021/04/30 12:34:49;;;;;;;;;;;13.70;86.60;;;;;;5033070;28;20019;-61
2021/04/30 12:37:16;;;;;;;;;;;13.70;86.70;;;;;;5033522;28;19936;-61
2021/04/30 12:39:42;;;;;;;;;;;13.70;86.80;;;;;;5033182;28;19925;-61
2021/04/30 12:42:09;;;;;;;;;;;13.70;87.00;;;;;;5033182;28;19936;-61
2021/04/30 12:44:35;;;;;;;;;;;13.70;86.90;;;;;;5033560;28;19925;-61
2021/04/30 12:47:04;;;;;;;;;;;13.70;87.00;;;;;;5033362;28;19925;-61
2021/04/30 12:49:35;;;;;;;;;;;13.70;88.00;;;;;;5033840;28;19925;-61
2021/04/30 12:52:04;;;;;;;;;;;13.70;87.10;;;;;;5033147;28;20686;-62
2021/04/30 12:54:31;;;;;;;;;;;13.80;87.40;;;;;;5033375;28;19932;-61
2021/04/30 12:56:59;;;;;;;;;;;13.80;86.90;;;;;;5032790;28;20271;-61
2021/04/30 12:59:26;;;;;;;;;;;13.80;87.10;;;;;;5033098;28;19978;-61
2021/04/30 13:01:53;;;;;;;;;;;13.80;87.30;;;;;;5032971;28;19933;-61
2021/04/30 13:04:20;;;;;;;;;;;13.80;87.50;;;;;;5033205;28;19925;-61
2021/04/30 13:06:49;;;;;;;;;;;13.80;88.00;;;;;;5032861;28;20018;-61
2021/04/30 13:09:16;;;;;;;;;;;13.80;88.30;;;;;;5033002;28;19925;-61
2021/04/30 13:11:58;;;;;;;;;;;13.80;88.40;;;;;;5033000;28;19925;-62
2021/04/30 13:14:25;;;;;;;;;;;13.80;88.10;;;;;;5033461;28;20253;-63
2021/04/30 13:16:52;;;;;;;;;;;13.80;88.10;;;;;;5032660;28;20024;-61
2021/04/30 13:19:21;;;;;;;;;;;13.80;89.00;;;;;;5033070;28;19926;-62
2021/04/30 13:21:49;;;;;;;;;;;13.80;88.00;;;;;;5032808;28;19956;-62
2021/04/30 13:24:17;;;;;;;;;;;13.80;87.90;;;;;;5032990;28;19929;-61
2021/04/30 13:26:55;;;;;;;;;;;13.70;88.20;;;;;;5032542;28;19929;-61
2021/04/30 13:29:22;;;;;;;;;;;13.70;88.60;;;;;;5033078;28;19925;-62
2021/04/30 13:31:59;;;;;;;;;;;13.70;89.00;;;;;;5032633;28;19940;-61
2021/04/30 13:34:33;;;;;;;;;;;13.70;89.30;;;;;;5033173;28;19991;-62
2021/04/30 13:37:03;;;;;;;;;;;13.70;88.90;;;;;;5032445;28;19956;-62
2021/04/30 13:39:30;;;;;;;;;;;13.60;88.80;;;;;;5032881;28;19929;-62
2021/04/30 13:41:57;;;;;;;;;;;13.60;89.00;;;;;;5032745;28;19991;-62
2021/04/30 13:44:23;;;;;;;;;;;13.60;89.30;;;;;;5032836;28;20471;-61
2021/04/30 13:46:50;;;;;;;;;;;13.60;89.50;;;;;;5032405;28;19925;-62
2021/04/30 13:49:17;;;;;;;;;;;13.60;89.50;;;;;;5032652;28;20348;-61
2021/04/30 13:51:44;;;;;;;;;;;13.60;89.00;;;;;;5032172;28;19925;-61
2021/04/30 13:54:10;;;;;;;;;;;13.60;89.00;;;;;;5034146;28;19936;-61
2021/04/30 13:56:36;;;;;;;;;;;13.70;89.30;;;;;;5036651;28;19933;-61
2021/04/30 13:59:04;;;;;;;;;;;13.70;89.50;;;;;;5036118;28;20315;-61
2021/04/30 14:01:31;;;;;;;;;;;13.70;89.30;;;;;;5036860;28;19987;-61
2021/04/30 14:03:57;;;;;;;;;;;13.70;89.00;;;;;;5036201;28;19936;-62
2021/04/30 14:06:23;;;;;;;;;;;13.70;88.40;;;;;;5036440;28;19936;-61
2021/04/30 14:08:50;;;;;;;;;;;13.80;88.50;;;;;;5036042;28;20348;-61
2021/04/30 14:11:16;;;;;;;;;;;13.80;88.30;;;;;;5036366;28;19936;-62
2021/04/30 14:13:42;;;;;;;;;;;13.80;88.30;;;;;;5036176;28;19925;-62
2021/04/30 14:16:11;;;;;;;;;;;13.80;88.40;;;;;;5036210;28;19925;-63
2021/04/30 14:18:37;;;;;;;;;;;13.80;88.40;;;;;;5036025;28;19929;-61